sensor_id;sensor_type;location;lat;lon;timestamp;P1;durP1;ratioP1;P2;durP2;ratioP2
16478;SDS011;8350;52.316;10.530;2024-02-15T00:00:48;3.10;;;2.58;;
16478;SDS011;8350;52.316;10.530;2024-02-15T00:03:17;4.47;;;2.35;;
16478;SDS011;8350;52.316;10.530;2024-02-15T00:05:46;3.05;;;2.75;;
16478;SDS011;8350;52.316;10.530;2024-02-15T00:08:12;3.63;;;2.83;;
16478;SDS011;8350;52.316;10.530;2024-02-15T00:10:40;2.28;;;1.85;;
16478;SDS011;8350;52.316;10.530;2024-02-15T00:13:07;3.83;;;2.83;;
16478;SDS011;8350;52.316;10.530;2024-02-15T00:15:33;3.00;;;2.70;;
16478;SDS011;8350;52.316;10.530;2024-02-15T00:18:03;3.25;;;2.70;;
16478;SDS011;8350;52.316;10.530;2024-02-15T00:20:30;4.85;;;2.85;;
16478;SDS011;8350;52.316;10.530;2024-02-15T00:22:58;5.70;;;2.05;;
16478;SDS011;8350;52.316;10.530;2024-02-15T00:25:25;5.65;;;3.08;;
16478;SDS011;8350;52.316;10.530;2024-02-15T00:27:52;3.67;;;2.50;;
16478;SDS011;8350;52.316;10.530;2024-02-15T00:30:19;4.35;;;2.15;;
16478;SDS011;8350;52.316;10.530;2024-02-15T00:32:46;3.53;;;3.13;;
16478;SDS011;8350;52.316;10.530;2024-02-15T00:35:17;4.47;;;3.25;;
16478;SDS011;8350;52.316;10.530;2024-02-15T00:37:45;3.50;;;2.50;;
16478;SDS011;8350;52.316;10.530;2024-02-15T00:40:12;3.97;;;3.17;;
16478;SDS011;8350;52.316;10.530;2024-02-15T00:42:39;2.47;;;2.17;;
16478;SDS011;8350;52.316;10.530;2024-02-15T00:45:06;2.90;;;2.33;;
16478;SDS011;8350;52.316;10.530;2024-02-15T00:47:37;3.10;;;2.40;;
16478;SDS011;8350;52.316;10.530;2024-02-15T00:50:07;3.05;;;2.58;;
16478;SDS011;8350;52.316;10.530;2024-02-15T00:52:36;3.17;;;2.38;;
16478;SDS011;8350;52.316;10.530;2024-02-15T00:55:02;4.18;;;2.42;;
16478;SDS011;8350;52.316;10.530;2024-02-15T00:57:29;3.05;;;2.35;;
16478;SDS011;8350;52.316;10.530;2024-02-15T00:59:57;2.25;;;2.05;;
16478;SDS011;8350;52.316;10.530;2024-02-15T01:02:24;2.70;;;2.08;;
16478;SDS011;8350;52.316;10.530;2024-02-15T01:04:53;3.13;;;2.15;;
16478;SDS011;8350;52.316;10.530;2024-02-15T01:07:22;3.00;;;2.45;;
16478;SDS011;8350;52.316;10.530;2024-02-15T01:09:53;2.88;;;2.35;;
16478;SDS011;8350;52.316;10.530;2024-02-15T01:12:20;2.80;;;2.08;;
16478;SDS011;8350;52.316;10.530;2024-02-15T01:14:49;3.55;;;2.15;;
16478;SDS011;8350;52.316;10.530;2024-02-15T01:17:16;2.35;;;2.15;;
16478;SDS011;8350;52.316;10.530;2024-02-15T01:19:43;4.75;;;2.78;;
16478;SDS011;8350;52.316;10.530;2024-02-15T01:22:10;2.63;;;2.42;;
16478;SDS011;8350;52.316;10.530;2024-02-15T01:24:38;3.05;;;2.15;;
16478;SDS011;8350;52.316;10.530;2024-02-15T01:27:07;3.65;;;2.42;;
16478;SDS011;8350;52.316;10.530;2024-02-15T01:29:35;2.30;;;2.00;;
16478;SDS011;8350;52.316;10.530;2024-02-15T01:32:02;2.58;;;2.03;;
16478;SDS011;8350;52.316;10.530;2024-02-15T01:34:30;3.38;;;2.53;;
16478;SDS011;8350;52.316;10.530;2024-02-15T01:36:57;2.85;;;2.00;;
16478;SDS011;8350;52.316;10.530;2024-02-15T01:39:24;3.25;;;2.28;;
16478;SDS011;8350;52.316;10.530;2024-02-15T01:41:53;2.85;;;1.92;;
16478;SDS011;8350;52.316;10.530;2024-02-15T01:44:23;2.70;;;2.20;;
16478;SDS011;8350;52.316;10.530;2024-02-15T01:46:51;3.13;;;2.22;;
16478;SDS011;8350;52.316;10.530;2024-02-15T01:49:19;2.45;;;2.00;;
16478;SDS011;8350;52.316;10.530;2024-02-15T01:51:47;3.08;;;2.78;;
16478;SDS011;8350;52.316;10.530;2024-02-15T01:54:15;2.88;;;2.40;;
16478;SDS011;8350;52.316;10.530;2024-02-15T01:56:42;2.78;;;2.33;;
16478;SDS011;8350;52.316;10.530;2024-02-15T01:59:10;3.78;;;2.40;;
16478;SDS011;8350;52.316;10.530;2024-02-15T02:01:40;3.17;;;2.72;;
16478;SDS011;8350;52.316;10.530;2024-02-15T02:04:08;3.33;;;2.53;;
16478;SDS011;8350;52.316;10.530;2024-02-15T02:06:37;2.58;;;1.88;;
16478;SDS011;8350;52.316;10.530;2024-02-15T02:09:05;2.40;;;2.08;;
16478;SDS011;8350;52.316;10.530;2024-02-15T02:11:37;2.28;;;2.08;;
16478;SDS011;8350;52.316;10.530;2024-02-15T02:14:08;2.72;;;2.13;;
16478;SDS011;8350;52.316;10.530;2024-02-15T02:16:34;3.63;;;2.53;;
16478;SDS011;8350;52.316;10.530;2024-02-15T02:19:04;3.42;;;2.17;;
16478;SDS011;8350;52.316;10.530;2024-02-15T02:21:34;2.45;;;2.00;;
16478;SDS011;8350;52.316;10.530;2024-02-15T02:24:02;4.53;;;2.58;;
16478;SDS011;8350;52.316;10.530;2024-02-15T02:26:38;2.28;;;1.92;;
16478;SDS011;8350;52.316;10.530;2024-02-15T02:29:07;3.38;;;1.90;;
16478;SDS011;8350;52.316;10.530;2024-02-15T02:31:35;4.88;;;2.65;;
16478;SDS011;8350;52.316;10.530;2024-02-15T02:34:02;2.63;;;2.38;;
16478;SDS011;8350;52.316;10.530;2024-02-15T02:36:31;2.80;;;2.55;;
16478;SDS011;8350;52.316;10.530;2024-02-15T02:38:58;2.45;;;2.25;;
16478;SDS011;8350;52.316;10.530;2024-02-15T02:41:28;2.97;;;2.33;;
16478;SDS011;8350;52.316;10.530;2024-02-15T02:43:56;4.80;;;3.63;;
16478;SDS011;8350;52.316;10.530;2024-02-15T02:46:23;2.55;;;2.28;;
16478;SDS011;8350;52.316;10.530;2024-02-15T02:48:50;2.83;;;2.10;;
16478;SDS011;8350;52.316;10.530;2024-02-15T02:51:17;3.72;;;3.17;;
16478;SDS011;8350;52.316;10.530;2024-02-15T02:53:46;2.63;;;2.28;;
16478;SDS011;8350;52.316;10.530;2024-02-15T02:56:13;3.53;;;2.25;;
16478;SDS011;8350;52.316;10.530;2024-02-15T02:58:40;3.53;;;2.53;;
16478;SDS011;8350;52.316;10.530;2024-02-15T03:01:09;3.75;;;2.28;;
16478;SDS011;8350;52.316;10.530;2024-02-15T03:03:38;3.22;;;2.40;;
16478;SDS011;8350;52.316;10.530;2024-02-15T03:06:05;3.85;;;2.67;;
16478;SDS011;8350;52.316;10.530;2024-02-15T03:08:37;3.60;;;2.55;;
16478;SDS011;8350;52.316;10.530;2024-02-15T03:11:10;4.28;;;3.13;;
16478;SDS011;8350;52.316;10.530;2024-02-15T03:13:39;3.70;;;2.42;;
16478;SDS011;8350;52.316;10.530;2024-02-15T03:16:10;3.08;;;2.30;;
16478;SDS011;8350;52.316;10.530;2024-02-15T03:18:37;3.20;;;2.50;;
16478;SDS011;8350;52.316;10.530;2024-02-15T03:21:04;3.15;;;2.50;;
16478;SDS011;8350;52.316;10.530;2024-02-15T03:23:30;3.95;;;2.90;;
16478;SDS011;8350;52.316;10.530;2024-02-15T03:25:58;2.58;;;2.00;;
16478;SDS011;8350;52.316;10.530;2024-02-15T03:28:25;3.60;;;2.30;;
16478;SDS011;8350;52.316;10.530;2024-02-15T03:30:52;3.35;;;2.50;;
16478;SDS011;8350;52.316;10.530;2024-02-15T03:33:22;3.45;;;2.28;;
16478;SDS011;8350;52.316;10.530;2024-02-15T03:35:58;2.88;;;2.03;;
16478;SDS011;8350;52.316;10.530;2024-02-15T03:38:25;2.88;;;2.15;;
16478;SDS011;8350;52.316;10.530;2024-02-15T03:40:56;5.47;;;3.17;;
16478;SDS011;8350;52.316;10.530;2024-02-15T03:43:23;3.17;;;2.17;;
16478;SDS011;8350;52.316;10.530;2024-02-15T03:45:50;3.08;;;2.25;;
16478;SDS011;8350;52.316;10.530;2024-02-15T03:48:18;2.75;;;2.50;;
16478;SDS011;8350;52.316;10.530;2024-02-15T03:50:51;2.83;;;2.35;;
16478;SDS011;8350;52.316;10.530;2024-02-15T03:53:18;2.22;;;1.95;;
16478;SDS011;8350;52.316;10.530;2024-02-15T03:55:44;4.43;;;2.00;;
16478;SDS011;8350;52.316;10.530;2024-02-15T03:58:11;3.20;;;2.17;;
16478;SDS011;8350;52.316;10.530;2024-02-15T04:00:39;2.53;;;2.33;;
16478;SDS011;8350;52.316;10.530;2024-02-15T04:03:06;2.40;;;2.15;;
16478;SDS011;8350;52.316;10.530;2024-02-15T04:05:34;1.98;;;1.77;;
16478;SDS011;8350;52.316;10.530;2024-02-15T04:08:03;2.28;;;1.83;;
16478;SDS011;8350;52.316;10.530;2024-02-15T04:10:32;1.88;;;1.60;;
16478;SDS011;8350;52.316;10.530;2024-02-15T04:13:00;2.83;;;2.28;;
16478;SDS011;8350;52.316;10.530;2024-02-15T04:15:32;2.22;;;1.92;;
16478;SDS011;8350;52.316;10.530;2024-02-15T04:17:59;3.75;;;2.25;;
16478;SDS011;8350;52.316;10.530;2024-02-15T04:20:37;2.50;;;2.22;;
16478;SDS011;8350;52.316;10.530;2024-02-15T04:23:05;2.33;;;1.65;;
16478;SDS011;8350;52.316;10.530;2024-02-15T04:25:32;1.88;;;1.67;;
16478;SDS011;8350;52.316;10.530;2024-02-15T04:27:59;1.80;;;1.55;;
16478;SDS011;8350;52.316;10.530;2024-02-15T04:30:29;1.90;;;1.65;;
16478;SDS011;8350;52.316;10.530;2024-02-15T04:33:00;1.85;;;1.73;;
16478;SDS011;8350;52.316;10.530;2024-02-15T04:35:26;2.50;;;2.03;;
16478;SDS011;8350;52.316;10.530;2024-02-15T04:37:54;2.05;;;1.65;;
16478;SDS011;8350;52.316;10.530;2024-02-15T04:40:26;2.65;;;1.77;;
16478;SDS011;8350;52.316;10.530;2024-02-15T04:42:54;2.17;;;1.90;;
16478;SDS011;8350;52.316;10.530;2024-02-15T04:45:27;2.13;;;1.70;;
16478;SDS011;8350;52.316;10.530;2024-02-15T04:47:55;2.17;;;1.98;;
16478;SDS011;8350;52.316;10.530;2024-02-15T04:50:26;2.88;;;2.00;;
16478;SDS011;8350;52.316;10.530;2024-02-15T04:52:54;1.90;;;1.77;;
16478;SDS011;8350;52.316;10.530;2024-02-15T04:55:21;2.17;;;1.85;;
16478;SDS011;8350;52.316;10.530;2024-02-15T04:57:49;2.40;;;1.80;;
16478;SDS011;8350;52.316;10.530;2024-02-15T05:00:20;2.33;;;1.88;;
16478;SDS011;8350;52.316;10.530;2024-02-15T05:02:48;2.00;;;1.73;;
16478;SDS011;8350;52.316;10.530;2024-02-15T05:05:24;2.03;;;1.63;;
16478;SDS011;8350;52.316;10.530;2024-02-15T05:07:54;2.53;;;1.83;;
16478;SDS011;8350;52.316;10.530;2024-02-15T05:10:24;3.58;;;1.70;;
16478;SDS011;8350;52.316;10.530;2024-02-15T05:12:52;3.28;;;2.10;;
16478;SDS011;8350;52.316;10.530;2024-02-15T05:15:20;1.83;;;1.58;;
16478;SDS011;8350;52.316;10.530;2024-02-15T05:17:50;1.40;;;1.30;;
16478;SDS011;8350;52.316;10.530;2024-02-15T05:20:17;1.65;;;1.45;;
16478;SDS011;8350;52.316;10.530;2024-02-15T05:22:46;4.60;;;1.80;;
16478;SDS011;8350;52.316;10.530;2024-02-15T05:25:12;1.77;;;1.65;;
16478;SDS011;8350;52.316;10.530;2024-02-15T05:27:47;1.48;;;1.38;;
16478;SDS011;8350;52.316;10.530;2024-02-15T05:30:18;2.17;;;1.98;;
16478;SDS011;8350;52.316;10.530;2024-02-15T05:32:44;1.85;;;1.65;;
16478;SDS011;8350;52.316;10.530;2024-02-15T05:35:13;1.55;;;1.45;;
16478;SDS011;8350;52.316;10.530;2024-02-15T05:37:40;2.00;;;1.50;;
16478;SDS011;8350;52.316;10.530;2024-02-15T05:40:07;1.63;;;1.40;;
16478;SDS011;8350;52.316;10.530;2024-02-15T05:42:40;1.48;;;1.38;;
16478;SDS011;8350;52.316;10.530;2024-02-15T05:48:00;1.83;;;1.65;;
16478;SDS011;8350;52.316;10.530;2024-02-15T05:50:32;2.10;;;1.52;;
16478;SDS011;8350;52.316;10.530;2024-02-15T05:52:59;1.90;;;1.73;;
16478;SDS011;8350;52.316;10.530;2024-02-15T05:55:26;1.55;;;1.30;;
16478;SDS011;8350;52.316;10.530;2024-02-15T05:57:54;1.88;;;1.58;;
16478;SDS011;8350;52.316;10.530;2024-02-15T06:00:21;2.55;;;1.95;;
16478;SDS011;8350;52.316;10.530;2024-02-15T06:02:49;2.03;;;1.40;;
16478;SDS011;8350;52.316;10.530;2024-02-15T06:05:31;2.00;;;1.70;;
16478;SDS011;8350;52.316;10.530;2024-02-15T06:08:00;2.55;;;1.83;;
16478;SDS011;8350;52.316;10.530;2024-02-15T06:10:29;2.10;;;1.50;;
16478;SDS011;8350;52.316;10.530;2024-02-15T06:12:56;1.67;;;1.40;;
16478;SDS011;8350;52.316;10.530;2024-02-15T06:15:24;3.58;;;1.58;;
16478;SDS011;8350;52.316;10.530;2024-02-15T06:17:54;2.15;;;1.45;;
16478;SDS011;8350;52.316;10.530;2024-02-15T06:20:22;2.00;;;1.52;;
16478;SDS011;8350;52.316;10.530;2024-02-15T06:22:50;1.58;;;1.10;;
16478;SDS011;8350;52.316;10.530;2024-02-15T06:25:17;1.70;;;1.55;;
16478;SDS011;8350;52.316;10.530;2024-02-15T06:27:45;1.95;;;1.50;;
16478;SDS011;8350;52.316;10.530;2024-02-15T06:30:14;1.55;;;1.45;;
16478;SDS011;8350;52.316;10.530;2024-02-15T06:33:01;1.65;;;1.55;;
16478;SDS011;8350;52.316;10.530;2024-02-15T06:35:46;2.33;;;1.63;;
16478;SDS011;8350;52.316;10.530;2024-02-15T06:38:30;1.70;;;1.60;;
16478;SDS011;8350;52.316;10.530;2024-02-15T06:41:14;1.55;;;1.33;;
16478;SDS011;8350;52.316;10.530;2024-02-15T06:43:41;1.88;;;1.58;;
16478;SDS011;8350;52.316;10.530;2024-02-15T06:46:08;2.58;;;1.90;;
16478;SDS011;8350;52.316;10.530;2024-02-15T06:48:37;1.52;;;1.42;;
16478;SDS011;8350;52.316;10.530;2024-02-15T06:51:11;1.50;;;1.40;;
16478;SDS011;8350;52.316;10.530;2024-02-15T06:53:41;1.50;;;1.40;;
16478;SDS011;8350;52.316;10.530;2024-02-15T06:56:08;1.40;;;1.30;;
16478;SDS011;8350;52.316;10.530;2024-02-15T06:58:41;1.90;;;1.40;;
16478;SDS011;8350;52.316;10.530;2024-02-15T07:01:08;1.95;;;1.50;;
16478;SDS011;8350;52.316;10.530;2024-02-15T07:03:40;1.70;;;1.45;;
16478;SDS011;8350;52.316;10.530;2024-02-15T07:06:09;1.42;;;1.23;;
16478;SDS011;8350;52.316;10.530;2024-02-15T07:08:38;3.70;;;1.45;;
16478;SDS011;8350;52.316;10.530;2024-02-15T07:11:09;1.90;;;1.52;;
16478;SDS011;8350;52.316;10.530;2024-02-15T07:13:37;1.35;;;1.23;;
16478;SDS011;8350;52.316;10.530;2024-02-15T07:16:07;2.00;;;1.60;;
16478;SDS011;8350;52.316;10.530;2024-02-15T07:18:34;1.95;;;1.50;;
16478;SDS011;8350;52.316;10.530;2024-02-15T07:21:05;2.03;;;1.88;;
16478;SDS011;8350;52.316;10.530;2024-02-15T07:23:36;1.85;;;1.42;;
16478;SDS011;8350;52.316;10.530;2024-02-15T07:26:03;1.50;;;1.25;;
16478;SDS011;8350;52.316;10.530;2024-02-15T07:28:31;3.00;;;2.25;;
16478;SDS011;8350;52.316;10.530;2024-02-15T07:31:00;1.55;;;1.23;;
16478;SDS011;8350;52.316;10.530;2024-02-15T07:33:30;1.13;;;1.02;;
16478;SDS011;8350;52.316;10.530;2024-02-15T07:35:57;2.47;;;1.77;;
16478;SDS011;8350;52.316;10.530;2024-02-15T07:38:26;1.70;;;1.52;;
16478;SDS011;8350;52.316;10.530;2024-02-15T07:40:54;1.38;;;1.13;;
16478;SDS011;8350;52.316;10.530;2024-02-15T07:43:21;1.70;;;1.60;;
16478;SDS011;8350;52.316;10.530;2024-02-15T07:45:48;1.48;;;1.27;;
16478;SDS011;8350;52.316;10.530;2024-02-15T07:48:15;2.03;;;1.65;;
16478;SDS011;8350;52.316;10.530;2024-02-15T07:50:42;3.50;;;1.60;;
16478;SDS011;8350;52.316;10.530;2024-02-15T07:53:09;1.80;;;1.65;;
16478;SDS011;8350;52.316;10.530;2024-02-15T07:55:38;1.50;;;1.40;;
16478;SDS011;8350;52.316;10.530;2024-02-15T07:58:06;2.38;;;1.58;;
16478;SDS011;8350;52.316;10.530;2024-02-15T08:00:33;2.88;;;1.75;;
16478;SDS011;8350;52.316;10.530;2024-02-15T08:03:00;2.67;;;1.65;;
16478;SDS011;8350;52.316;10.530;2024-02-15T08:05:28;3.42;;;2.00;;
16478;SDS011;8350;52.316;10.530;2024-02-15T08:07:55;2.20;;;1.73;;
16478;SDS011;8350;52.316;10.530;2024-02-15T08:10:23;2.05;;;1.63;;
16478;SDS011;8350;52.316;10.530;2024-02-15T08:12:53;1.88;;;1.45;;
16478;SDS011;8350;52.316;10.530;2024-02-15T08:15:23;2.65;;;1.85;;
16478;SDS011;8350;52.316;10.530;2024-02-15T08:17:52;1.60;;;1.35;;
16478;SDS011;8350;52.316;10.530;2024-02-15T08:20:20;2.10;;;1.65;;
16478;SDS011;8350;52.316;10.530;2024-02-15T08:22:49;1.88;;;1.45;;
16478;SDS011;8350;52.316;10.530;2024-02-15T08:25:16;2.10;;;1.40;;
16478;SDS011;8350;52.316;10.530;2024-02-15T08:27:43;1.48;;;1.38;;
16478;SDS011;8350;52.316;10.530;2024-02-15T08:30:16;2.45;;;1.73;;
16478;SDS011;8350;52.316;10.530;2024-02-15T08:32:43;2.85;;;1.55;;
16478;SDS011;8350;52.316;10.530;2024-02-15T08:35:13;2.47;;;1.17;;
16478;SDS011;8350;52.316;10.530;2024-02-15T08:37:40;1.58;;;1.45;;
16478;SDS011;8350;52.316;10.530;2024-02-15T08:40:12;1.35;;;1.25;;
16478;SDS011;8350;52.316;10.530;2024-02-15T08:42:40;1.88;;;1.30;;
16478;SDS011;8350;52.316;10.530;2024-02-15T08:45:08;1.70;;;1.23;;
16478;SDS011;8350;52.316;10.530;2024-02-15T08:47:37;1.58;;;1.30;;
16478;SDS011;8350;52.316;10.530;2024-02-15T08:50:05;1.40;;;1.25;;
16478;SDS011;8350;52.316;10.530;2024-02-15T08:52:34;4.20;;;1.95;;
16478;SDS011;8350;52.316;10.530;2024-02-15T08:55:03;1.63;;;1.00;;
16478;SDS011;8350;52.316;10.530;2024-02-15T08:57:34;1.98;;;1.52;;
16478;SDS011;8350;52.316;10.530;2024-02-15T09:00:02;1.90;;;1.20;;
16478;SDS011;8350;52.316;10.530;2024-02-15T09:02:39;2.08;;;1.15;;
16478;SDS011;8350;52.316;10.530;2024-02-15T09:05:06;2.33;;;1.30;;
16478;SDS011;8350;52.316;10.530;2024-02-15T09:07:34;1.77;;;0.95;;
16478;SDS011;8350;52.316;10.530;2024-02-15T09:10:02;1.85;;;1.02;;
16478;SDS011;8350;52.316;10.530;2024-02-15T09:12:38;1.55;;;1.30;;
16478;SDS011;8350;52.316;10.530;2024-02-15T09:15:06;4.25;;;1.27;;
16478;SDS011;8350;52.316;10.530;2024-02-15T09:17:34;2.65;;;1.60;;
16478;SDS011;8350;52.316;10.530;2024-02-15T09:20:07;1.88;;;1.30;;
16478;SDS011;8350;52.316;10.530;2024-02-15T09:22:39;2.42;;;1.65;;
16478;SDS011;8350;52.316;10.530;2024-02-15T09:25:06;2.03;;;1.52;;
16478;SDS011;8350;52.316;10.530;2024-02-15T09:27:38;1.88;;;1.63;;
16478;SDS011;8350;52.316;10.530;2024-02-15T09:30:05;2.00;;;1.67;;
16478;SDS011;8350;52.316;10.530;2024-02-15T09:32:40;2.17;;;1.60;;
16478;SDS011;8350;52.316;10.530;2024-02-15T09:35:10;3.47;;;1.83;;
16478;SDS011;8350;52.316;10.530;2024-02-15T09:37:38;2.97;;;1.60;;
16478;SDS011;8350;52.316;10.530;2024-02-15T09:40:09;2.20;;;1.33;;
16478;SDS011;8350;52.316;10.530;2024-02-15T09:42:37;1.40;;;1.30;;
16478;SDS011;8350;52.316;10.530;2024-02-15T09:45:05;2.25;;;1.92;;
16478;SDS011;8350;52.316;10.530;2024-02-15T09:47:36;2.92;;;1.48;;
16478;SDS011;8350;52.316;10.530;2024-02-15T09:50:05;1.50;;;1.40;;
16478;SDS011;8350;52.316;10.530;2024-02-15T09:52:34;1.33;;;1.23;;
16478;SDS011;8350;52.316;10.530;2024-02-15T09:57:35;1.33;;;1.15;;
16478;SDS011;8350;52.316;10.530;2024-02-15T10:00:03;1.92;;;0.93;;
16478;SDS011;8350;52.316;10.530;2024-02-15T10:02:33;2.28;;;1.10;;
16478;SDS011;8350;52.316;10.530;2024-02-15T10:05:06;1.10;;;0.98;;
16478;SDS011;8350;52.316;10.530;2024-02-15T10:07:38;2.35;;;0.98;;
16478;SDS011;8350;52.316;10.530;2024-02-15T10:10:13;1.70;;;1.15;;
16478;SDS011;8350;52.316;10.530;2024-02-15T10:12:42;3.25;;;0.82;;
16478;SDS011;8350;52.316;10.530;2024-02-15T10:15:26;1.50;;;0.90;;
16478;SDS011;8350;52.316;10.530;2024-02-15T10:17:55;1.08;;;0.82;;
16478;SDS011;8350;52.316;10.530;2024-02-15T10:23:50;1.02;;;0.88;;
16478;SDS011;8350;52.316;10.530;2024-02-15T10:26:31;2.03;;;0.88;;
16478;SDS011;8350;52.316;10.530;2024-02-15T10:29:06;0.70;;;0.68;;
16478;SDS011;8350;52.316;10.530;2024-02-15T10:31:35;1.02;;;0.82;;
16478;SDS011;8350;52.316;10.530;2024-02-15T10:34:03;1.63;;;1.10;;
16478;SDS011;8350;52.316;10.530;2024-02-15T10:36:33;0.80;;;0.70;;
16478;SDS011;8350;52.316;10.530;2024-02-15T10:39:17;0.93;;;0.93;;
16478;SDS011;8350;52.316;10.530;2024-02-15T10:41:47;0.95;;;0.80;;
16478;SDS011;8350;52.316;10.530;2024-02-15T10:44:17;0.68;;;0.68;;
16478;SDS011;8350;52.316;10.530;2024-02-15T10:46:46;0.60;;;0.60;;
16478;SDS011;8350;52.316;10.530;2024-02-15T10:49:17;0.75;;;0.75;;
16478;SDS011;8350;52.316;10.530;2024-02-15T10:51:47;0.70;;;0.70;;
16478;SDS011;8350;52.316;10.530;2024-02-15T10:54:19;1.58;;;0.82;;
16478;SDS011;8350;52.316;10.530;2024-02-15T10:57:06;1.77;;;0.60;;
16478;SDS011;8350;52.316;10.530;2024-02-15T10:59:51;1.55;;;0.85;;
16478;SDS011;8350;52.316;10.530;2024-02-15T11:02:25;0.50;;;0.50;;
16478;SDS011;8350;52.316;10.530;2024-02-15T11:05:01;1.05;;;0.80;;
16478;SDS011;8350;52.316;10.530;2024-02-15T11:07:31;0.98;;;0.70;;
16478;SDS011;8350;52.316;10.530;2024-02-15T11:10:01;0.73;;;0.63;;
16478;SDS011;8350;52.316;10.530;2024-02-15T11:12:31;1.52;;;0.60;;
16478;SDS011;8350;52.316;10.530;2024-02-15T11:14:58;0.70;;;0.60;;
16478;SDS011;8350;52.316;10.530;2024-02-15T11:17:44;0.88;;;0.80;;
16478;SDS011;8350;52.316;10.530;2024-02-15T11:23:24;1.33;;;0.68;;
16478;SDS011;8350;52.316;10.530;2024-02-15T11:25:56;0.80;;;0.52;;
16478;SDS011;8350;52.316;10.530;2024-02-15T11:28:43;0.63;;;0.63;;
16478;SDS011;8350;52.316;10.530;2024-02-15T11:40:20;0.73;;;0.73;;
16478;SDS011;8350;52.316;10.530;2024-02-15T11:42:55;0.60;;;0.60;;
16478;SDS011;8350;52.316;10.530;2024-02-15T11:45:24;1.38;;;0.77;;
16478;SDS011;8350;52.316;10.530;2024-02-15T11:47:57;0.80;;;0.80;;
16478;SDS011;8350;52.316;10.530;2024-02-15T11:50:26;3.75;;;0.85;;
16478;SDS011;8350;52.316;10.530;2024-02-15T11:53:01;2.20;;;0.55;;
16478;SDS011;8350;52.316;10.530;2024-02-15T11:55:31;1.08;;;0.98;;
16478;SDS011;8350;52.316;10.530;2024-02-15T11:57:59;0.63;;;0.60;;
16478;SDS011;8350;52.316;10.530;2024-02-15T12:00:32;1.40;;;1.23;;
16478;SDS011;8350;52.316;10.530;2024-02-15T12:03:16;0.88;;;0.88;;
16478;SDS011;8350;52.316;10.530;2024-02-15T12:06:03;1.23;;;1.13;;
16478;SDS011;8350;52.316;10.530;2024-02-15T12:08:48;0.90;;;0.90;;
16478;SDS011;8350;52.316;10.530;2024-02-15T12:11:36;1.83;;;1.10;;
16478;SDS011;8350;52.316;10.530;2024-02-15T12:14:23;1.73;;;1.05;;
16478;SDS011;8350;52.316;10.530;2024-02-15T12:17:07;1.75;;;1.20;;
16478;SDS011;8350;52.316;10.530;2024-02-15T12:19:53;1.20;;;0.95;;
16478;SDS011;8350;52.316;10.530;2024-02-15T12:22:21;1.35;;;1.23;;
16478;SDS011;8350;52.316;10.530;2024-02-15T12:24:54;1.55;;;1.20;;
16478;SDS011;8350;52.316;10.530;2024-02-15T12:27:22;0.90;;;0.70;;
16478;SDS011;8350;52.316;10.530;2024-02-15T12:29:53;1.35;;;1.25;;
16478;SDS011;8350;52.316;10.530;2024-02-15T12:32:22;2.38;;;1.60;;
16478;SDS011;8350;52.316;10.530;2024-02-15T12:34:49;2.00;;;1.55;;
16478;SDS011;8350;52.316;10.530;2024-02-15T12:37:17;2.55;;;1.65;;
16478;SDS011;8350;52.316;10.530;2024-02-15T12:39:48;2.10;;;1.42;;
16478;SDS011;8350;52.316;10.530;2024-02-15T12:42:15;3.95;;;1.83;;
16478;SDS011;8350;52.316;10.530;2024-02-15T12:44:44;3.15;;;2.15;;
16478;SDS011;8350;52.316;10.530;2024-02-15T12:47:20;1.73;;;1.60;;
16478;SDS011;8350;52.316;10.530;2024-02-15T12:49:48;3.28;;;1.92;;
16478;SDS011;8350;52.316;10.530;2024-02-15T12:52:32;2.20;;;1.60;;
16478;SDS011;8350;52.316;10.530;2024-02-15T12:55:07;2.33;;;1.33;;
16478;SDS011;8350;52.316;10.530;2024-02-15T12:57:38;1.05;;;0.93;;
16478;SDS011;8350;52.316;10.530;2024-02-15T13:00:10;2.47;;;1.27;;
16478;SDS011;8350;52.316;10.530;2024-02-15T13:02:44;1.90;;;1.17;;
16478;SDS011;8350;52.316;10.530;2024-02-15T13:05:22;3.10;;;1.58;;
16478;SDS011;8350;52.316;10.530;2024-02-15T13:07:58;2.75;;;1.38;;
16478;SDS011;8350;52.316;10.530;2024-02-15T13:10:27;1.48;;;1.38;;
16478;SDS011;8350;52.316;10.530;2024-02-15T13:13:03;0.85;;;0.85;;
16478;SDS011;8350;52.316;10.530;2024-02-15T13:15:53;2.53;;;1.30;;
16478;SDS011;8350;52.316;10.530;2024-02-15T13:18:21;2.08;;;1.10;;
16478;SDS011;8350;52.316;10.530;2024-02-15T13:20:48;1.08;;;0.70;;
16478;SDS011;8350;52.316;10.530;2024-02-15T13:23:17;1.90;;;1.23;;
16478;SDS011;8350;52.316;10.530;2024-02-15T13:25:47;3.15;;;1.00;;
16478;SDS011;8350;52.316;10.530;2024-02-15T13:28:15;1.10;;;0.88;;
16478;SDS011;8350;52.316;10.530;2024-02-15T13:30:44;1.42;;;1.33;;
16478;SDS011;8350;52.316;10.530;2024-02-15T13:33:11;1.80;;;1.33;;
16478;SDS011;8350;52.316;10.530;2024-02-15T13:35:39;2.80;;;1.02;;
16478;SDS011;8350;52.316;10.530;2024-02-15T13:38:06;2.67;;;1.23;;
16478;SDS011;8350;52.316;10.530;2024-02-15T13:40:39;3.50;;;1.23;;
16478;SDS011;8350;52.316;10.530;2024-02-15T13:43:07;2.38;;;1.00;;
16478;SDS011;8350;52.316;10.530;2024-02-15T13:45:39;2.28;;;0.88;;
16478;SDS011;8350;52.316;10.530;2024-02-15T13:48:06;2.80;;;1.10;;
16478;SDS011;8350;52.316;10.530;2024-02-15T13:50:34;1.00;;;0.95;;
16478;SDS011;8350;52.316;10.530;2024-02-15T13:53:10;1.60;;;1.23;;
16478;SDS011;8350;52.316;10.530;2024-02-15T13:55:38;1.00;;;0.88;;
16478;SDS011;8350;52.316;10.530;2024-02-15T13:58:05;1.60;;;0.93;;
16478;SDS011;8350;52.316;10.530;2024-02-15T14:00:33;2.67;;;1.00;;
16478;SDS011;8350;52.316;10.530;2024-02-15T14:03:01;3.83;;;1.17;;
16478;SDS011;8350;52.316;10.530;2024-02-15T14:05:31;1.13;;;1.13;;
16478;SDS011;8350;52.316;10.530;2024-02-15T14:08:02;0.90;;;0.90;;
16478;SDS011;8350;52.316;10.530;2024-02-15T14:10:36;1.20;;;1.10;;
16478;SDS011;8350;52.316;10.530;2024-02-15T14:13:05;1.65;;;1.25;;
16478;SDS011;8350;52.316;10.530;2024-02-15T14:15:47;1.67;;;1.05;;
16478;SDS011;8350;52.316;10.530;2024-02-15T14:18:14;2.78;;;1.25;;
16478;SDS011;8350;52.316;10.530;2024-02-15T14:20:43;2.58;;;0.88;;
16478;SDS011;8350;52.316;10.530;2024-02-15T14:23:13;1.90;;;1.40;;
16478;SDS011;8350;52.316;10.530;2024-02-15T14:25:40;1.15;;;1.05;;
16478;SDS011;8350;52.316;10.530;2024-02-15T14:28:09;1.98;;;0.80;;
16478;SDS011;8350;52.316;10.530;2024-02-15T14:30:36;2.30;;;1.20;;
16478;SDS011;8350;52.316;10.530;2024-02-15T14:33:20;1.40;;;0.80;;
16478;SDS011;8350;52.316;10.530;2024-02-15T14:35:47;2.22;;;0.80;;
16478;SDS011;8350;52.316;10.530;2024-02-15T14:38:16;2.85;;;1.08;;
16478;SDS011;8350;52.316;10.530;2024-02-15T14:40:46;1.23;;;0.90;;
16478;SDS011;8350;52.316;10.530;2024-02-15T14:43:17;1.20;;;0.95;;
16478;SDS011;8350;52.316;10.530;2024-02-15T14:45:46;1.63;;;0.68;;
16478;SDS011;8350;52.316;10.530;2024-02-15T14:48:13;1.23;;;0.98;;
16478;SDS011;8350;52.316;10.530;2024-02-15T14:50:42;1.55;;;1.00;;
16478;SDS011;8350;52.316;10.530;2024-02-15T14:53:10;1.08;;;0.98;;
16478;SDS011;8350;52.316;10.530;2024-02-15T14:55:39;1.10;;;1.00;;
16478;SDS011;8350;52.316;10.530;2024-02-15T14:58:08;1.42;;;1.33;;
16478;SDS011;8350;52.316;10.530;2024-02-15T15:00:35;1.50;;;1.40;;
16478;SDS011;8350;52.316;10.530;2024-02-15T15:03:03;1.42;;;1.15;;
16478;SDS011;8350;52.316;10.530;2024-02-15T15:05:30;1.50;;;1.08;;
16478;SDS011;8350;52.316;10.530;2024-02-15T15:08:15;2.72;;;0.88;;
16478;SDS011;8350;52.316;10.530;2024-02-15T15:11:01;0.80;;;0.80;;
16478;SDS011;8350;52.316;10.530;2024-02-15T15:13:48;1.38;;;1.27;;
16478;SDS011;8350;52.316;10.530;2024-02-15T15:16:18;1.20;;;0.90;;
16478;SDS011;8350;52.316;10.530;2024-02-15T15:18:46;0.75;;;0.75;;
16478;SDS011;8350;52.316;10.530;2024-02-15T15:21:13;1.35;;;0.90;;
16478;SDS011;8350;52.316;10.530;2024-02-15T15:23:42;2.13;;;1.95;;
16478;SDS011;8350;52.316;10.530;2024-02-15T15:26:10;1.70;;;1.30;;